Time;durP1;ratioP1;P1;durP2;ratioP2;P2;SDS_P1;SDS_P2;PMS_P1;PMS_P2;Temp;Humidity;BMP_temperature;BMP_pressure;BME280_temperature;BME280_humidity;BME280_pressure;Samples;Min_cycle;Max_cycle;Signal;HPM_P1;HPM_P2
2021/10/05 00:00:31;;;;;;;12.68;6.30;;;;;;;;;;4990450;28;20081;-73
2021/10/05 00:02:57;;;;;;;12.50;6.40;;;;;;;;;;4983951;28;20125;-74
2021/10/05 00:05:26;;;;;;;10.60;6.40;;;;;;;;;;4992517;28;20031;-72
2021/10/05 00:07:52;;;;;;;11.40;6.10;;;;;;;;;;4996243;28;20042;-72
2021/10/05 00:10:18;;;;;;;12.48;6.70;;;;;;;;;;5006896;28;20018;-73
2021/10/05 00:12:46;;;;;;;10.82;6.25;;;;;;;;;;5007384;28;20120;-73
2021/10/05 00:15:12;;;;;;;9.98;6.40;;;;;;;;;;4996868;28;20223;-74
2021/10/05 00:17:38;;;;;;;10.27;6.47;;;;;;;;;;4996778;28;20034;-73
2021/10/05 00:20:08;;;;;;;10.70;6.50;;;;;;;;;;5001189;28;20026;-73
2021/10/05 00:22:34;;;;;;;9.70;6.55;;;;;;;;;;4996740;28;20030;-71
2021/10/05 00:25:00;;;;;;;13.88;6.78;;;;;;;;;;4995629;28;20026;-75
2021/10/05 00:27:26;;;;;;;14.13;6.43;;;;;;;;;;4995077;28;20070;-74
2021/10/05 00:29:52;;;;;;;13.50;6.70;;;;;;;;;;4995894;28;20034;-73
2021/10/05 00:32:18;;;;;;;11.90;6.38;;;;;;;;;;4994683;28;20061;-74
2021/10/05 00:34:44;;;;;;;11.00;6.75;;;;;;;;;;4994407;28;20041;-73
2021/10/05 00:37:10;;;;;;;12.60;6.38;;;;;;;;;;4995232;28;20476;-72
2021/10/05 00:39:36;;;;;;;13.35;7.07;;;;;;;;;;4998316;28;20493;-74
2021/10/05 00:42:04;;;;;;;12.13;6.75;;;;;;;;;;5003657;28;20054;-73
2021/10/05 00:44:34;;;;;;;17.63;6.43;;;;;;;;;;4995064;28;20015;-74
2021/10/05 00:47:03;;;;;;;14.07;6.63;;;;;;;;;;4996600;28;20041;-74
2021/10/05 00:49:35;;;;;;;13.25;6.32;;;;;;;;;;4994675;28;20105;-75
2021/10/05 00:52:01;;;;;;;18.00;6.78;;;;;;;;;;4997130;28;20089;-73
2021/10/05 00:54:28;;;;;;;12.45;6.38;;;;;;;;;;4995992;28;20046;-72
2021/10/05 00:56:54;;;;;;;13.88;6.68;;;;;;;;;;4992562;28;20488;-72
2021/10/05 00:59:20;;;;;;;11.85;6.80;;;;;;;;;;4993516;28;20507;-74
2021/10/05 01:01:46;;;;;;;13.48;6.30;;;;;;;;;;4991342;28;20105;-75
2021/10/05 01:04:12;;;;;;;13.35;6.47;;;;;;;;;;4994889;28;20030;-74
2021/10/05 01:06:45;;;;;;;11.88;6.63;;;;;;;;;;4996297;28;20395;-73
2021/10/05 01:09:11;;;;;;;10.32;6.72;;;;;;;;;;5000698;28;20026;-73
2021/10/05 01:11:37;;;;;;;11.35;5.70;;;;;;;;;;4984410;28;20047;-70
2021/10/05 01:14:03;;;;;;;13.57;6.20;;;;;;;;;;4996807;28;20045;-70
2021/10/05 01:16:29;;;;;;;9.75;6.20;;;;;;;;;;4994448;28;20026;-73
2021/10/05 01:18:55;;;;;;;9.00;6.25;;;;;;;;;;5001639;28;20068;-71
2021/10/05 01:21:22;;;;;;;9.60;6.32;;;;;;;;;;4993188;28;20026;-73
2021/10/05 01:23:48;;;;;;;11.05;6.55;;;;;;;;;;5000099;28;20030;-74
2021/10/05 01:26:14;;;;;;;7.28;6.07;;;;;;;;;;4991137;28;20113;-69
2021/10/05 01:28:40;;;;;;;8.70;6.10;;;;;;;;;;4999151;28;20038;-73
2021/10/05 01:31:06;;;;;;;12.00;6.25;;;;;;;;;;5000939;28;20463;-69
2021/10/05 01:33:32;;;;;;;13.60;6.43;;;;;;;;;;4999141;28;20038;-73
2021/10/05 01:35:58;;;;;;;12.20;7.07;;;;;;;;;;4993148;28;20034;-70
2021/10/05 01:38:24;;;;;;;8.05;5.90;;;;;;;;;;4997652;28;20026;-72
2021/10/05 01:40:53;;;;;;;12.38;6.63;;;;;;;;;;5000995;28;20084;-74
2021/10/05 01:43:19;;;;;;;11.98;6.15;;;;;;;;;;4998776;28;20057;-72
2021/10/05 01:45:45;;;;;;;11.63;6.32;;;;;;;;;;4995710;28;20022;-70
2021/10/05 01:48:11;;;;;;;12.50;6.38;;;;;;;;;;4995060;28;20113;-70
2021/10/05 01:50:37;;;;;;;12.30;6.25;;;;;;;;;;4998508;28;20388;-73
2021/10/05 01:53:04;;;;;;;11.55;6.60;;;;;;;;;;4998927;28;20026;-72
2021/10/05 01:55:30;;;;;;;8.57;6.30;;;;;;;;;;5004666;28;20054;-68
2021/10/05 01:57:56;;;;;;;11.73;6.40;;;;;;;;;;4995557;28;20033;-70
2021/10/05 02:00:22;;;;;;;8.73;6.05;;;;;;;;;;4995314;28;20035;-72
2021/10/05 02:02:49;;;;;;;9.95;6.18;;;;;;;;;;4994946;28;20376;-74
2021/10/05 02:05:15;;;;;;;9.57;6.30;;;;;;;;;;4994612;28;20022;-74
2021/10/05 02:07:41;;;;;;;10.77;6.30;;;;;;;;;;4994088;28;20568;-73
2021/10/05 02:10:09;;;;;;;13.65;6.40;;;;;;;;;;5003745;28;20372;-70
2021/10/05 02:12:36;;;;;;;13.20;6.85;;;;;;;;;;4993324;28;20081;-70
2021/10/05 02:15:02;;;;;;;9.80;6.00;;;;;;;;;;4995161;28;20054;-72
2021/10/05 02:17:30;;;;;;;9.40;6.32;;;;;;;;;;4995481;28;20031;-72
2021/10/05 02:19:56;;;;;;;13.73;6.18;;;;;;;;;;5002274;28;20026;-72
2021/10/05 02:22:24;;;;;;;11.27;6.28;;;;;;;;;;5003483;28;20084;-72
2021/10/05 02:24:50;;;;;;;13.45;6.30;;;;;;;;;;4997693;28;20141;-71
2021/10/05 02:27:17;;;;;;;12.05;6.25;;;;;;;;;;4998816;28;20504;-72
2021/10/05 02:29:44;;;;;;;10.68;6.15;;;;;;;;;;4999315;28;20053;-72
2021/10/05 02:32:11;;;;;;;13.60;6.00;;;;;;;;;;4997252;28;20101;-70
2021/10/05 02:34:40;;;;;;;13.18;6.57;;;;;;;;;;5000533;28;20030;-72
2021/10/05 02:37:06;;;;;;;12.68;6.35;;;;;;;;;;5009031;28;20196;-70
2021/10/05 02:39:32;;;;;;;13.30;6.20;;;;;;;;;;4993359;28;20094;-74
2021/10/05 02:41:58;;;;;;;10.98;6.13;;;;;;;;;;5000028;28;20042;-72
2021/10/05 02:44:25;;;;;;;12.50;6.40;;;;;;;;;;4997565;28;20018;-73
2021/10/05 02:46:51;;;;;;;10.48;6.47;;;;;;;;;;4997942;28;20439;-71
2021/10/05 02:49:17;;;;;;;11.05;6.07;;;;;;;;;;4993633;28;20026;-72
2021/10/05 02:51:43;;;;;;;10.73;6.47;;;;;;;;;;4996368;28;20033;-72
2021/10/05 02:54:10;;;;;;;11.43;6.18;;;;;;;;;;4998335;28;20046;-71
2021/10/05 02:56:36;;;;;;;11.40;6.60;;;;;;;;;;4995015;28;20117;-73
2021/10/05 02:59:02;;;;;;;11.50;6.63;;;;;;;;;;4995381;28;20050;-72
2021/10/05 03:01:28;;;;;;;9.48;6.25;;;;;;;;;;4993620;28;20031;-73
2021/10/05 03:03:59;;;;;;;10.18;6.30;;;;;;;;;;4993443;28;20057;-72
2021/10/05 03:06:25;;;;;;;8.20;6.03;;;;;;;;;;5001490;28;20051;-71
2021/10/05 03:08:54;;;;;;;13.73;6.25;;;;;;;;;;4995424;28;20424;-69
2021/10/05 03:11:20;;;;;;;12.43;6.10;;;;;;;;;;4991906;28;20495;-71
2021/10/05 03:13:46;;;;;;;9.02;6.28;;;;;;;;;;4992186;28;20034;-73
2021/10/05 03:16:12;;;;;;;10.48;6.70;;;;;;;;;;5001236;28;20464;-73
2021/10/05 03:18:41;;;;;;;10.93;6.00;;;;;;;;;;5001893;28;20030;-73
2021/10/05 03:21:07;;;;;;;8.57;6.07;;;;;;;;;;4997035;28;20141;-71
2021/10/05 03:23:34;;;;;;;11.10;6.88;;;;;;;;;;4994636;28;20030;-72
2021/10/05 03:26:00;;;;;;;12.55;6.35;;;;;;;;;;4984390;28;20030;-72
2021/10/05 03:28:26;;;;;;;9.40;6.13;;;;;;;;;;4996457;28;20045;-70
2021/10/05 03:30:52;;;;;;;10.75;6.95;;;;;;;;;;4997959;28;20085;-73
2021/10/05 03:33:19;;;;;;;9.82;6.28;;;;;;;;;;5001127;28;20029;-73
2021/10/05 03:35:45;;;;;;;11.90;6.32;;;;;;;;;;4997710;28;20081;-69
2021/10/05 03:38:11;;;;;;;12.10;6.30;;;;;;;;;;4988484;28;20388;-71
2021/10/05 03:40:37;;;;;;;8.75;6.00;;;;;;;;;;4993226;28;20468;-71
2021/10/05 03:43:03;;;;;;;8.80;6.25;;;;;;;;;;4998055;28;20100;-69
2021/10/05 03:45:29;;;;;;;13.98;6.85;;;;;;;;;;5000096;28;20018;-72
2021/10/05 03:47:55;;;;;;;10.40;6.50;;;;;;;;;;4997853;28;20046;-72
2021/10/05 03:50:21;;;;;;;12.02;6.75;;;;;;;;;;4994586;28;20030;-72
2021/10/05 03:52:48;;;;;;;13.63;6.65;;;;;;;;;;5000611;28;20026;-70
2021/10/05 03:55:14;;;;;;;12.00;6.30;;;;;;;;;;4994528;28;20042;-70
2021/10/05 03:57:42;;;;;;;12.13;6.18;;;;;;;;;;4999270;28;20127;-70
2021/10/05 04:00:09;;;;;;;10.15;6.78;;;;;;;;;;4984274;28;20105;-68
2021/10/05 04:02:35;;;;;;;15.40;6.55;;;;;;;;;;4993726;28;20069;-71
2021/10/05 04:05:01;;;;;;;9.80;6.45;;;;;;;;;;4997400;28;20018;-73
2021/10/05 04:07:27;;;;;;;11.98;6.70;;;;;;;;;;4997616;28;20559;-72
2021/10/05 04:09:53;;;;;;;15.25;6.95;;;;;;;;;;5002973;28;20492;-70
2021/10/05 04:12:21;;;;;;;13.90;6.72;;;;;;;;;;5009196;28;20022;-70
2021/10/05 04:14:50;;;;;;;9.82;6.32;;;;;;;;;;4991609;28;20527;-71
2021/10/05 04:17:16;;;;;;;12.65;6.78;;;;;;;;;;4989228;28;20036;-70
2021/10/05 04:19:42;;;;;;;10.30;6.50;;;;;;;;;;4999645;28;20026;-71
2021/10/05 04:22:08;;;;;;;10.77;6.30;;;;;;;;;;4991071;28;20042;-67
2021/10/05 04:24:34;;;;;;;16.75;6.50;;;;;;;;;;4993473;28;20030;-71
2021/10/05 04:27:00;;;;;;;10.73;6.60;;;;;;;;;;4995246;28;20038;-72
2021/10/05 04:29:26;;;;;;;15.43;6.80;;;;;;;;;;4992055;28;20038;-71
2021/10/05 04:31:52;;;;;;;10.73;6.70;;;;;;;;;;4992583;28;20038;-71
2021/10/05 04:34:18;;;;;;;11.25;6.30;;;;;;;;;;5001138;28;20161;-71
2021/10/05 04:36:44;;;;;;;12.90;7.50;;;;;;;;;;4991592;28;20061;-68
2021/10/05 04:39:10;;;;;;;12.20;6.45;;;;;;;;;;5000218;28;20101;-70
2021/10/05 04:41:36;;;;;;;12.38;6.45;;;;;;;;;;4997945;28;20038;-71
2021/10/05 04:44:02;;;;;;;11.73;6.72;;;;;;;;;;5001370;28;20017;-72
2021/10/05 04:46:28;;;;;;;12.45;7.03;;;;;;;;;;4999799;28;20031;-70
2021/10/05 04:48:55;;;;;;;11.13;6.63;;;;;;;;;;4994214;28;20874;-73
2021/10/05 04:51:21;;;;;;;13.80;6.60;;;;;;;;;;4992768;28;20030;-70
2021/10/05 04:53:47;;;;;;;12.32;6.43;;;;;;;;;;4995343;28;20030;-73
2021/10/05 04:56:13;;;;;;;10.75;6.57;;;;;;;;;;4999461;28;20038;-70
2021/10/05 04:58:39;;;;;;;12.75;7.07;;;;;;;;;;4998084;28;20046;-72
2021/10/05 05:01:05;;;;;;;10.88;6.38;;;;;;;;;;4993423;28;20041;-70
2021/10/05 05:03:31;;;;;;;9.77;6.47;;;;;;;;;;4996564;28;20031;-73
2021/10/05 05:05:57;;;;;;;13.20;6.68;;;;;;;;;;4995213;28;20019;-71
2021/10/05 05:08:23;;;;;;;11.13;6.70;;;;;;;;;;4993655;28;20057;-65
2021/10/05 05:10:49;;;;;;;15.90;6.60;;;;;;;;;;4992938;28;20026;-67
2021/10/05 05:13:15;;;;;;;10.30;6.40;;;;;;;;;;4995327;28;20033;-67
2021/10/05 05:15:43;;;;;;;13.13;6.13;;;;;;;;;;4993417;28;20089;-74
2021/10/05 05:18:09;;;;;;;19.45;6.50;;;;;;;;;;4999210;28;20057;-69
2021/10/05 05:20:35;;;;;;;14.13;5.88;;;;;;;;;;4998356;28;20030;-68
2021/10/05 05:23:01;;;;;;;10.60;5.97;;;;;;;;;;4995018;28;20030;-70
2021/10/05 05:25:27;;;;;;;13.15;6.00;;;;;;;;;;4996068;28;20065;-68
2021/10/05 05:27:53;;;;;;;13.13;6.10;;;;;;;;;;4995298;28;20046;-68
2021/10/05 05:30:19;;;;;;;11.90;6.57;;;;;;;;;;4995452;28;20034;-68
2021/10/05 05:32:45;;;;;;;13.23;6.40;;;;;;;;;;4999146;28;20492;-70
2021/10/05 05:35:11;;;;;;;15.98;6.20;;;;;;;;;;4997858;28;20628;-69
2021/10/05 05:37:39;;;;;;;15.73;5.88;;;;;;;;;;4997253;28;20030;-70
2021/10/05 05:40:06;;;;;;;11.50;6.28;;;;;;;;;;4996541;28;20051;-69
2021/10/05 05:42:33;;;;;;;15.73;6.00;;;;;;;;;;4986699;28;20026;-71
2021/10/05 05:44:59;;;;;;;13.55;6.03;;;;;;;;;;4998243;28;20053;-69
2021/10/05 05:47:25;;;;;;;15.13;6.65;;;;;;;;;;4996508;28;20097;-68
2021/10/05 05:49:51;;;;;;;12.45;5.55;;;;;;;;;;4997149;28;20030;-72
2021/10/05 05:52:17;;;;;;;10.02;5.90;;;;;;;;;;4998516;28;20042;-72
2021/10/05 05:54:44;;;;;;;12.70;6.18;;;;;;;;;;5002486;28;20059;-70
2021/10/05 05:57:10;;;;;;;11.48;5.85;;;;;;;;;;4997073;28;20062;-71
2021/10/05 05:59:36;;;;;;;15.35;6.57;;;;;;;;;;5001871;28;20022;-73
2021/10/05 06:02:02;;;;;;;13.82;5.65;;;;;;;;;;4992846;28;20066;-78
2021/10/05 06:04:28;;;;;;;12.35;5.78;;;;;;;;;;4993682;28;20015;-78
2021/10/05 06:06:54;;;;;;;14.40;5.57;;;;;;;;;;5000948;28;20550;-69
2021/10/05 06:09:20;;;;;;;7.80;5.50;;;;;;;;;;4995889;28;20388;-72
2021/10/05 06:11:49;;;;;;;10.60;5.70;;;;;;;;;;4998407;28;20029;-72
2021/10/05 06:14:15;;;;;;;18.55;6.32;;;;;;;;;;4992861;28;20117;-74
2021/10/05 06:16:50;;;;;;;8.77;5.47;;;;;;;;;;4976800;28;20034;-81
2021/10/05 06:19:16;;;;;;;13.93;6.25;;;;;;;;;;4996109;28;20022;-70
2021/10/05 06:21:42;;;;;;;13.15;5.85;;;;;;;;;;4994237;28;20495;-68
2021/10/05 06:24:08;;;;;;;15.95;6.15;;;;;;;;;;5000114;28;20638;-73
2021/10/05 06:26:34;;;;;;;14.30;6.22;;;;;;;;;;4995340;28;20176;-72
2021/10/05 06:29:03;;;;;;;24.20;9.50;;;;;;;;;;5002935;28;20025;-68
2021/10/05 06:31:29;;;;;;;10.50;6.00;;;;;;;;;;4993325;28;20055;-74
2021/10/05 06:33:55;;;;;;;15.95;5.80;;;;;;;;;;4995468;28;20028;-78
2021/10/05 06:36:21;;;;;;;14.70;6.28;;;;;;;;;;4997088;28;20031;-77
2021/10/05 06:38:47;;;;;;;17.55;6.72;;;;;;;;;;4996755;28;20113;-77
2021/10/05 06:41:13;;;;;;;7.82;5.43;;;;;;;;;;5002644;28;20026;-74
2021/10/05 06:43:39;;;;;;;11.15;6.10;;;;;;;;;;4994309;28;20027;-79
2021/10/05 06:46:05;;;;;;;10.73;5.43;;;;;;;;;;4976350;28;20042;-80
2021/10/05 06:48:31;;;;;;;16.85;6.45;;;;;;;;;;4999501;28;20041;-78
2021/10/05 06:50:57;;;;;;;12.30;5.55;;;;;;;;;;4994500;28;20026;-70
2021/10/05 06:53:24;;;;;;;14.48;5.75;;;;;;;;;;4998960;28;20026;-71
2021/10/05 06:55:51;;;;;;;11.75;5.32;;;;;;;;;;4997260;28;20503;-78
2021/10/05 06:58:17;;;;;;;22.35;6.18;;;;;;;;;;4997983;28;20823;-82
2021/10/05 07:00:43;;;;;;;10.32;6.07;;;;;;;;;;4993917;28;20030;-84
2021/10/05 07:03:09;;;;;;;12.77;5.88;;;;;;;;;;4994676;28;20057;-71
2021/10/05 07:05:36;;;;;;;12.68;5.80;;;;;;;;;;4999303;28;20149;-71
2021/10/05 07:08:05;;;;;;;12.27;5.80;;;;;;;;;;5001811;28;20034;-71
2021/10/05 07:10:31;;;;;;;13.75;5.43;;;;;;;;;;5002395;28;20063;-70
2021/10/05 07:12:57;;;;;;;10.98;5.63;;;;;;;;;;4993068;28;20077;-71
2021/10/05 07:15:23;;;;;;;12.20;5.88;;;;;;;;;;4993952;28;20026;-84
2021/10/05 07:18:00;;;;;;;13.13;6.68;;;;;;;;;;4992712;28;20395;-79
2021/10/05 07:20:27;;;;;;;15.50;6.03;;;;;;;;;;4977445;28;20042;-80
2021/10/05 07:22:55;;;;;;;11.45;5.45;;;;;;;;;;4975173;28;20037;-85
2021/10/05 07:25:22;;;;;;;24.90;6.32;;;;;;;;;;4988910;28;20112;-84
2021/10/05 07:27:51;;;;;;;9.10;5.80;;;;;;;;;;4979243;28;20050;-76
2021/10/05 07:30:22;;;;;;;22.23;6.55;;;;;;;;;;4991881;28;20034;-82
2021/10/05 07:32:49;;;;;;;14.45;5.85;;;;;;;;;;4992270;28;20031;-84
2021/10/05 07:35:15;;;;;;;13.35;6.40;;;;;;;;;;4993350;28;20037;-76
2021/10/05 07:37:41;;;;;;;13.95;5.75;;;;;;;;;;4994121;28;20101;-78
2021/10/05 07:40:07;;;;;;;11.52;5.97;;;;;;;;;;4980047;28;20042;-74
2021/10/05 07:42:33;;;;;;;14.32;5.70;;;;;;;;;;4998176;28;20033;-77
2021/10/05 07:45:00;;;;;;;10.25;5.45;;;;;;;;;;4991095;28;20053;-73
2021/10/05 07:47:26;;;;;;;11.93;5.85;;;;;;;;;;4994315;28;20046;-75
2021/10/05 07:49:52;;;;;;;13.13;5.93;;;;;;;;;;4994123;28;20046;-79
2021/10/05 07:52:19;;;;;;;12.05;6.25;;;;;;;;;;4993012;28;20034;-78
2021/10/05 07:54:48;;;;;;;12.38;6.13;;;;;;;;;;4996315;28;20116;-80
2021/10/05 07:57:14;;;;;;;16.13;6.28;;;;;;;;;;4975352;28;20046;-79
2021/10/05 07:59:40;;;;;;;14.27;5.82;;;;;;;;;;4978061;28;20484;-76
2021/10/05 08:02:06;;;;;;;12.10;6.28;;;;;;;;;;4993310;28;20094;-73
2021/10/05 08:04:35;;;;;;;12.85;6.57;;;;;;;;;;4976552;28;20041;-73
2021/10/05 08:07:26;;;;;;;;;;;;;;;;;;;;;
2021/10/05 08:10:31;;;;;;;13.75;5.18;;;;;;;;;;4991224;28;20040;-72
2021/10/05 08:12:57;;;;;;;13.93;6.47;;;;;;;;;;4934220;28;20525;-72
2021/10/05 08:15:23;;;;;;;10.73;5.82;;;;;;;;;;4928452;29;20038;-73
2021/10/05 08:18:09;;;;;;;13.68;5.30;;;;;;;;;;4931224;29;20047;-71
2021/10/05 08:20:36;;;;;;;14.55;5.90;;;;;;;;;;4910216;29;20501;-81
2021/10/05 08:23:02;;;;;;;27.52;6.50;;;;;;;;;;4910274;29;20040;-81
2021/10/05 08:25:28;;;;;;;10.80;5.80;;;;;;;;;;4911794;29;20114;-82
2021/10/05 08:27:54;;;;;;;11.70;6.22;;;;;;;;;;4915137;29;20043;-84
2021/10/05 08:30:23;;;;;;;10.88;5.25;;;;;;;;;;4928405;29;20050;-76
2021/10/05 08:32:50;;;;;;;9.85;5.65;;;;;;;;;;4934984;29;20027;-79
2021/10/05 08:35:17;;;;;;;15.02;6.57;;;;;;;;;;4928557;29;20071;-72
2021/10/05 08:37:43;;;;;;;13.48;5.95;;;;;;;;;;4934917;29;20024;-70
2021/10/05 08:40:11;;;;;;;11.27;5.78;;;;;;;;;;4938266;29;20078;-69
2021/10/05 08:42:37;;;;;;;19.05;6.68;;;;;;;;;;4932588;29;20502;-77
2021/10/05 08:45:04;;;;;;;9.25;5.88;;;;;;;;;;4934694;29;20524;-79
2021/10/05 08:47:30;;;;;;;12.63;6.00;;;;;;;;;;4915486;29;20048;-71
2021/10/05 08:49:57;;;;;;;22.33;6.05;;;;;;;;;;4973953;28;20090;-74
2021/10/05 08:52:23;;;;;;;14.90;5.57;;;;;;;;;;4989659;28;20564;-70
2021/10/05 08:54:49;;;;;;;10.75;5.35;;;;;;;;;;4984990;28;20053;-74
2021/10/05 08:57:15;;;;;;;13.07;5.97;;;;;;;;;;4989507;28;20038;-71
2021/10/05 08:59:41;;;;;;;14.43;6.32;;;;;;;;;;4981403;28;20031;-70
2021/10/05 09:02:14;;;;;;;13.85;5.50;;;;;;;;;;4985937;28;20034;-69
2021/10/05 09:04:44;;;;;;;14.80;5.55;;;;;;;;;;4986156;28;20022;-68
2021/10/05 09:07:18;;;;;;;11.00;5.60;;;;;;;;;;4981678;28;20381;-68
2021/10/05 09:09:58;;;;;;;14.00;5.65;;;;;;;;;;4996017;28;20093;-70
2021/10/05 09:12:33;;;;;;;12.95;5.85;;;;;;;;;;4993935;28;20030;-69
2021/10/05 09:15:02;;;;;;;13.27;6.07;;;;;;;;;;4999658;28;20022;-68
2021/10/05 09:17:29;;;;;;;11.13;6.07;;;;;;;;;;4999532;28;20026;-69
2021/10/05 09:19:57;;;;;;;19.75;6.43;;;;;;;;;;4999364;28;20034;-69
2021/10/05 09:22:32;;;;;;;14.85;6.03;;;;;;;;;;4993122;28;20027;-69
2021/10/05 09:24:59;;;;;;;13.77;5.75;;;;;;;;;;4999524;28;20084;-70
2021/10/05 09:27:26;;;;;;;12.10;5.63;;;;;;;;;;4998949;28;21474;-70
2021/10/05 09:29:55;;;;;;;13.82;6.05;;;;;;;;;;4992255;28;20030;-73
2021/10/05 09:32:22;;;;;;;14.15;6.47;;;;;;;;;;4995360;28;20026;-86
2021/10/05 09:34:57;;;;;;;16.25;6.10;;;;;;;;;;4975180;28;20030;-86
2021/10/05 09:37:24;;;;;;;17.25;6.32;;;;;;;;;;4978636;28;20033;-77
2021/10/05 09:43:21;;;;;;;15.23;7.78;;;;;;;;;;4989499;28;20097;-74
2021/10/05 09:45:47;;;;;;;10.27;5.85;;;;;;;;;;4995756;28;20048;-70
2021/10/05 09:48:13;;;;;;;12.88;5.60;;;;;;;;;;4992501;28;20042;-76
2021/10/05 09:50:40;;;;;;;16.90;7.00;;;;;;;;;;4977510;28;20061;-77
2021/10/05 09:53:07;;;;;;;21.75;6.93;;;;;;;;;;4993534;28;20114;-74
2021/10/05 09:55:34;;;;;;;17.33;6.40;;;;;;;;;;4994880;28;20070;-77
2021/10/05 09:58:01;;;;;;;13.32;5.70;;;;;;;;;;4979309;28;20038;-82
2021/10/05 10:00:30;;;;;;;11.38;5.57;;;;;;;;;;4991375;28;20065;-73
2021/10/05 10:02:56;;;;;;;13.52;5.30;;;;;;;;;;4963245;28;20585;-70
2021/10/05 10:05:24;;;;;;;14.25;5.55;;;;;;;;;;4965678;28;20552;-74
2021/10/05 10:07:51;;;;;;;15.95;5.90;;;;;;;;;;4972979;28;20480;-81
2021/10/05 10:10:18;;;;;;;19.88;6.15;;;;;;;;;;4949447;28;20057;-74
2021/10/05 10:12:56;;;;;;;12.20;5.43;;;;;;;;;;4970736;28;20055;-79
2021/10/05 10:15:26;;;;;;;16.08;5.75;;;;;;;;;;4962847;28;20117;-70
2021/10/05 10:18:03;;;;;;;16.42;5.68;;;;;;;;;;4972207;28;20039;-77
2021/10/05 10:20:29;;;;;;;14.82;5.28;;;;;;;;;;4962890;28;20102;-77
2021/10/05 10:22:55;;;;;;;13.20;5.45;;;;;;;;;;4967721;28;20055;-70
2021/10/05 10:25:25;;;;;;;14.48;5.47;;;;;;;;;;4965862;28;20030;-65
2021/10/05 10:27:55;;;;;;;21.92;5.75;;;;;;;;;;4966213;28;20500;-71
2021/10/05 10:30:22;;;;;;;11.73;5.45;;;;;;;;;;4977126;28;20037;-68
2021/10/05 10:32:51;;;;;;;14.65;5.45;;;;;;;;;;4972453;28;20105;-70
2021/10/05 10:35:17;;;;;;;18.30;6.05;;;;;;;;;;4998521;28;20026;-74
2021/10/05 10:37:45;;;;;;;18.27;6.13;;;;;;;;;;4996470;28;20022;-71
2021/10/05 10:40:12;;;;;;;46.33;7.35;;;;;;;;;;4998364;28;20015;-74
2021/10/05 10:42:39;;;;;;;14.48;5.25;;;;;;;;;;5006483;28;20443;-69
2021/10/05 10:45:18;;;;;;;11.10;5.22;;;;;;;;;;4993808;28;20073;-74
2021/10/05 10:47:46;;;;;;;11.55;5.28;;;;;;;;;;4993483;28;20034;-71
2021/10/05 10:50:14;;;;;;;15.10;5.72;;;;;;;;;;4995034;28;20018;-74
2021/10/05 10:52:43;;;;;;;10.63;5.10;;;;;;;;;;5000268;28;20041;-71
2021/10/05 10:55:10;;;;;;;15.98;5.45;;;;;;;;;;4993170;28;20121;-73
2021/10/05 10:57:42;;;;;;;15.45;5.00;;;;;;;;;;4993360;28;20100;-80
2021/10/05 11:00:13;;;;;;;14.77;5.35;;;;;;;;;;4976133;28;20049;-78
2021/10/05 11:02:46;;;;;;;18.92;5.45;;;;;;;;;;4995569;28;20046;-81
2021/10/05 11:05:13;;;;;;;14.50;5.90;;;;;;;;;;4993394;28;20520;-86
2021/10/05 11:07:39;;;;;;;24.55;6.53;;;;;;;;;;4997192;28;20034;-70
2021/10/05 11:10:09;;;;;;;17.27;5.80;;;;;;;;;;4995132;28;20468;-74
2021/10/05 11:12:39;;;;;;;15.23;5.18;;;;;;;;;;4992163;28;20468;-71
2021/10/05 11:15:06;;;;;;;10.95;5.18;;;;;;;;;;4994433;28;20014;-74
2021/10/05 11:17:33;;;;;;;16.05;5.90;;;;;;;;;;4964058;28;20513;-74
2021/10/05 11:20:04;;;;;;;16.38;5.78;;;;;;;;;;4993049;28;20022;-70
2021/10/05 11:22:30;;;;;;;8.73;5.95;;;;;;;;;;4994552;28;20030;-71
2021/10/05 11:24:57;;;;;;;14.18;5.88;;;;;;;;;;4993324;28;20033;-69
2021/10/05 11:27:49;;;;;;;24.38;6.93;;;;;;;;;;4992386;28;20435;-70
2021/10/05 11:30:15;;;;;;;15.57;5.65;;;;;;;;;;4996676;28;20039;-68
2021/10/05 11:32:41;;;;;;;15.43;4.97;;;;;;;;;;4998271;28;20034;-68
2021/10/05 11:35:07;;;;;;;15.27;5.20;;;;;;;;;;4990389;28;20030;-69
2021/10/05 11:37:34;;;;;;;12.70;5.13;;;;;;;;;;4989875;28;20053;-67
2021/10/05 11:40:00;;;;;;;15.02;6.35;;;;;;;;;;4991864;28;20023;-71
2021/10/05 11:42:27;;;;;;;14.68;6.28;;;;;;;;;;4992586;28;20026;-71
2021/10/05 11:44:59;;;;;;;14.93;5.75;;;;;;;;;;4991546;28;20025;-76
2021/10/05 11:47:26;;;;;;;22.05;6.90;;;;;;;;;;4979780;28;20045;-72
2021/10/05 11:50:07;;;;;;;9.32;5.47;;;;;;;;;;5005638;28;20056;-73
2021/10/05 11:52:37;;;;;;;23.08;5.40;;;;;;;;;;4999179;28;20029;-75
2021/10/05 11:55:04;;;;;;;18.20;5.70;;;;;;;;;;4989130;28;20065;-74
2021/10/05 11:57:32;;;;;;;12.50;5.05;;;;;;;;;;4995224;28;20097;-73
2021/10/05 12:00:02;;;;;;;10.63;5.45;;;;;;;;;;4995260;28;20496;-71
2021/10/05 12:02:28;;;;;;;12.07;5.70;;;;;;;;;;4995600;28;20570;-72
2021/10/05 12:04:55;;;;;;;17.13;5.32;;;;;;;;;;4997281;28;20032;-72
2021/10/05 12:07:21;;;;;;;14.88;5.85;;;;;;;;;;4991316;28;20518;-74
2021/10/05 12:09:49;;;;;;;12.63;5.60;;;;;;;;;;4999391;28;20014;-69
2021/10/05 12:12:16;;;;;;;9.35;5.78;;;;;;;;;;5001776;28;20033;-71
2021/10/05 12:14:53;;;;;;;11.60;5.38;;;;;;;;;;4999877;28;20109;-73
2021/10/05 12:17:20;;;;;;;10.65;5.30;;;;;;;;;;4992710;28;20022;-68
2021/10/05 12:19:49;;;;;;;14.40;5.60;;;;;;;;;;4997817;28;20138;-69
2021/10/05 12:22:21;;;;;;;13.10;5.18;;;;;;;;;;4995210;28;20084;-72
2021/10/05 12:24:50;;;;;;;14.98;5.20;;;;;;;;;;4993337;28;20021;-73
2021/10/05 12:27:19;;;;;;;10.80;5.53;;;;;;;;;;5001383;28;20041;-70
2021/10/05 12:29:47;;;;;;;10.02;5.80;;;;;;;;;;5001698;28;20022;-70
2021/10/05 12:32:14;;;;;;;18.83;6.80;;;;;;;;;;4996393;28;20026;-67
2021/10/05 12:34:41;;;;;;;11.07;5.65;;;;;;;;;;4997366;28;20073;-73
2021/10/05 12:37:08;;;;;;;11.68;5.50;;;;;;;;;;5000372;28;20026;-72
2021/10/05 12:39:34;;;;;;;21.88;5.63;;;;;;;;;;5003307;28;20037;-73
2021/10/05 12:42:01;;;;;;;13.40;5.38;;;;;;;;;;4998750;28;20018;-72
2021/10/05 12:44:31;;;;;;;13.98;5.40;;;;;;;;;;4996773;28;20022;-71
2021/10/05 12:46:59;;;;;;;18.80;5.63;;;;;;;;;;4998293;28;20054;-72
2021/10/05 12:49:25;;;;;;;11.85;4.95;;;;;;;;;;5002719;28;20479;-71
2021/10/05 12:51:52;;;;;;;11.88;5.60;;;;;;;;;;4993255;28;20023;-72
2021/10/05 12:54:18;;;;;;;10.85;5.20;;;;;;;;;;4994861;28;20025;-71
2021/10/05 12:56:45;;;;;;;9.98;5.05;;;;;;;;;;4992111;28;20158;-71
2021/10/05 12:59:11;;;;;;;10.38;5.20;;;;;;;;;;4988440;28;20031;-71
2021/10/05 13:01:38;;;;;;;12.25;5.53;;;;;;;;;;4991527;28;20093;-68
2021/10/05 13:04:07;;;;;;;11.02;5.57;;;;;;;;;;4995135;28;20036;-73
2021/10/05 13:06:34;;;;;;;15.95;5.95;;;;;;;;;;4995882;28;20037;-71
2021/10/05 13:09:02;;;;;;;11.50;5.45;;;;;;;;;;5000551;28;20030;-72
2021/10/05 13:11:29;;;;;;;9.65;5.30;;;;;;;;;;4991849;28;20105;-69
2021/10/05 13:13:55;;;;;;;14.32;9.35;;;;;;;;;;5000770;28;20549;-74
2021/10/05 13:16:21;;;;;;;13.23;5.82;;;;;;;;;;4977534;28;20049;-72
2021/10/05 13:18:49;;;;;;;17.30;5.82;;;;;;;;;;4999412;28;20027;-73
2021/10/05 13:21:16;;;;;;;14.43;5.05;;;;;;;;;;4993808;28;20026;-70
2021/10/05 13:23:42;;;;;;;8.75;5.47;;;;;;;;;;4991830;28;20026;-72
2021/10/05 13:26:08;;;;;;;10.32;4.80;;;;;;;;;;4997623;28;20029;-72
2021/10/05 13:28:35;;;;;;;10.95;5.63;;;;;;;;;;4997916;28;20038;-73
2021/10/05 13:31:01;;;;;;;12.95;5.53;;;;;;;;;;5000561;28;20038;-73
2021/10/05 13:33:27;;;;;;;24.63;5.10;;;;;;;;;;5002970;28;20073;-73
2021/10/05 13:35:54;;;;;;;9.93;5.25;;;;;;;;;;4994143;28;20054;-73
2021/10/05 13:38:20;;;;;;;26.48;5.82;;;;;;;;;;4994930;28;20026;-73
2021/10/05 13:40:58;;;;;;;16.33;5.68;;;;;;;;;;4997728;28;20038;-72
2021/10/05 13:43:25;;;;;;;17.75;6.07;;;;;;;;;;5002663;28;20391;-71
2021/10/05 13:45:51;;;;;;;14.43;5.70;;;;;;;;;;4999437;28;20026;-74
2021/10/05 13:48:17;;;;;;;13.73;5.63;;;;;;;;;;4999916;28;20035;-73
2021/10/05 13:50:43;;;;;;;17.63;5.70;;;;;;;;;;4991864;28;20026;-72
2021/10/05 13:53:09;;;;;;;17.05;5.75;;;;;;;;;;4987713;28;20030;-70
2021/10/05 13:55:35;;;;;;;16.70;5.55;;;;;;;;;;5002795;28;20081;-73
2021/10/05 13:58:01;;;;;;;12.73;5.85;;;;;;;;;;4999632;28;20022;-73
2021/10/05 14:00:27;;;;;;;12.82;5.65;;;;;;;;;;5001466;28;20042;-72
2021/10/05 14:02:54;;;;;;;16.60;5.57;;;;;;;;;;4999210;28;20018;-74
2021/10/05 14:05:20;;;;;;;27.77;5.20;;;;;;;;;;4998504;28;20032;-73
2021/10/05 14:07:46;;;;;;;16.52;5.70;;;;;;;;;;5003537;28;20042;-71
2021/10/05 14:10:12;;;;;;;20.45;5.93;;;;;;;;;;5003242;28;20031;-73
2021/10/05 14:12:38;;;;;;;13.40;5.25;;;;;;;;;;4997973;28;20045;-73
2021/10/05 14:15:04;;;;;;;18.20;6.18;;;;;;;;;;5003313;28;20373;-74
2021/10/05 14:17:32;;;;;;;31.25;5.80;;;;;;;;;;5009151;28;20097;-74
2021/10/05 14:20:00;;;;;;;12.48;5.28;;;;;;;;;;5006937;28;20018;-71
2021/10/05 14:22:26;;;;;;;22.83;6.35;;;;;;;;;;4995052;28;20037;-73
2021/10/05 14:24:53;;;;;;;15.85;5.75;;;;;;;;;;4998835;28;20087;-73
2021/10/05 14:27:19;;;;;;;20.88;5.55;;;;;;;;;;5006257;28;20045;-74
2021/10/05 14:29:45;;;;;;;16.42;6.00;;;;;;;;;;4998410;28;20034;-73
2021/10/05 14:32:12;;;;;;;38.78;6.97;;;;;;;;;;4998273;28;20029;-74
2021/10/05 14:34:38;;;;;;;16.70;5.28;;;;;;;;;;4993901;28;20028;-74
2021/10/05 14:37:05;;;;;;;25.40;6.15;;;;;;;;;;5003609;28;20029;-74